Αναφορές METAR Αεροδρομίων

 

LGTS - THESSALONIKI - GREECE
Ενημερώθηκε: 20/09/2017 02:50
Αραιές Νεφώσεις
Αραιές Νεφώσεις
 Ανεμος από varies
Ανεμος: varies 6 km/h
Θερμοκρασία: 21°C
Σημείο Δρόσου: 17°C
Υγρασία: 78%
Βαρόμετρο: 1007 hPa
Clouds: Αραιές Νεφώσεις
Visibility: 10 km
Cloud details: Αραιές Νεφώσεις 457 m
2017/09/19 23:50 LGTS 192350Z VRB03KT 9999 FEW015 21/17 Q1007 NOSIG
LGLR - LARTISA - GREECE
Ενημερώθηκε: 20/09/2017 02:50
Αίθριος
Αίθριος
 Ανεμος από calm
Ανεμος: Απνοια
Θερμοκρασία: 19°C
Σημείο Δρόσου: 8°C
Υγρασία: 49%
Βαρόμετρο: 1008 hPa
Περίληψη: Αίθριος
Visibility: greater than 10 km
2017/09/19 23:50 LGLR 192350Z 00000KT CAVOK 19/08 Q1008 BLU
 
LGKZ - KOZANI - GREECE
Ενημερώθηκε: 19/09/2017 20:50
NOT Current
Αίθριος
Αίθριος
 Ανεμος από Δ
Ανεμος: Δ 9 km/h
Θερμοκρασία: 25°C
Σημείο Δρόσου: 6°C
Υγρασία: 30%
Βαρόμετρο: 1012 hPa
Περίληψη: Αίθριος
Visibility: greater than 10 km
2017/09/19 17:50 LGKZ 191750Z 27005KT CAVOK 25/06 Q1012
LGKV - KAVALA - GREECE
Ενημερώθηκε: 20/09/2017 02:50
Αραιές Νεφώσεις
Αραιές Νεφώσεις
 Ανεμος από ΒΑ
Ανεμος: ΒΑ 11 km/h
Θερμοκρασία: 21°C
Σημείο Δρόσου: 19°C
Υγρασία: 88%
Βαρόμετρο: 1008 hPa
Clouds: Αραιές Νεφώσεις
Visibility: 8 km
Cloud details: Αραιές Νεφώσεις 366 m
2017/09/19 23:50 LGKV 192350Z 05006KT 8000 FEW012 21/19 Q1008
 
LGIO - IOANNINA - GREECE
Ενημερώθηκε: 19/09/2017 22:20
NOT Current
Σχεδόν νεφελώδης
Σχεδόν νεφελώδης
 Ανεμος από varies
Ανεμος: varies 0 km/h
Θερμοκρασία: 19°C
Σημείο Δρόσου: 16°C
Υγρασία: 83%
Βαρόμετρο: 1014 hPa
Clouds: Σχεδόν νεφελώδης
Visibility: 10 km
Cloud details: Μερικώς νεφελώδης 914 m
Σχεδόν νεφελώδης 2438 m
2017/09/19 19:20 LGIO 191920Z /////KT 9999 SCT030 BKN080 19/16 Q1014
LGBL - BOLOS - GREECE
Ενημερώθηκε: 20/09/2017 02:50
Αίθριος
Αίθριος
 Ανεμος από ΔΒΔ
Ανεμος: ΔΒΔ 7 km/h
Θερμοκρασία: 20°C
Σημείο Δρόσου: 9°C
Υγρασία: 49%
Βαρόμετρο: 1007 hPa
Περίληψη: Αίθριος
Visibility: greater than 10 km
2017/09/19 23:50 LGBL 192350Z 29004KT CAVOK 20/09 Q1007
 
LGMT - MITILINI - GREECE
Ενημερώθηκε: 19/09/2017 22:20
NOT Current
Αίθριος
Αίθριος
 Ανεμος από calm
Ανεμος: Απνοια
Θερμοκρασία: 24°C
Σημείο Δρόσου: 13°C
Υγρασία: 50%
Βαρόμετρο: 1010 hPa
Περίληψη: Αίθριος
Visibility: greater than 10 km
2017/09/19 19:20 LGMT 191920Z 00000KT CAVOK 24/13 Q1010
LGAV - ATHENS - GREECE
Ενημερώθηκε: 20/09/2017 02:50
Αραιές Νεφώσεις
Αραιές Νεφώσεις
 Ανεμος από ΝΝΔ
Ανεμος: ΝΝΔ 4 km/h
Θερμοκρασία: 20°C
Σημείο Δρόσου: 11°C
Υγρασία: 56%
Βαρόμετρο: 1009 hPa
Clouds: Αραιές Νεφώσεις
Visibility: 10 km
Cloud details: Αραιές Νεφώσεις 914 m
2017/09/19 23:50 LGAV 192350Z 21002KT 9999 FEW030 20/11 Q1009 NOSIG
 
LGRP - RODOS - GREECE
Ενημερώθηκε: 20/09/2017 02:50
Αίθριος
Αίθριος
 Ανεμος από ΝΔ
Ανεμος: ΝΔ 9 km/h
Θερμοκρασία: 24°C
Σημείο Δρόσου: 22°C
Υγρασία: 89%
Βαρόμετρο: 1010 hPa
Περίληψη: Αίθριος
Visibility: greater than 10 km
2017/09/19 23:50 LGRP 192350Z 23005KT CAVOK 24/22 Q1010 NOSIG
LGIR - HRAKLIO/KRITI - GREECE
Ενημερώθηκε: 20/09/2017 02:50
Αίθριος
Αίθριος
 Ανεμος από Ν
Ανεμος: Ν 20 km/h
Θερμοκρασία: 22°C
Σημείο Δρόσου: 14°C
Υγρασία: 61%
Βαρόμετρο: 1011 hPa
Περίληψη: Αίθριος
Visibility: greater than 10 km
2017/09/19 23:50 LGIR 192350Z 17011KT CAVOK 22/14 Q1011 NOSIG
 
LGMK - MIKONOS - GREECE
Ενημερώθηκε: 19/09/2017 23:20
NOT Current
Αίθριος
Αίθριος
 Ανεμος από varies
Ανεμος: varies 6 km/h
Θερμοκρασία: 26°C
Σημείο Δρόσου: 15°C
Υγρασία: 51%
Βαρόμετρο: 1011 hPa
Περίληψη: Αίθριος
Visibility: greater than 10 km
2017/09/19 20:20 LGMK 192020Z VRB03KT CAVOK 26/15 Q1011
LGKR - KERKIRA - GREECE
Ενημερώθηκε: 20/09/2017 02:50
Μερικώς νεφελώδης
Μερικώς νεφελώδης
 Ανεμος από varies
Ανεμος: varies 6 km/h
Θερμοκρασία: 21°C
Σημείο Δρόσου: 20°C
Υγρασία: 94%
Βαρόμετρο: 1010 hPa
Clouds: Μερικώς νεφελώδης
Visibility: 10 km
Cloud details: Μερικώς νεφελώδης 610 m
2017/09/19 23:50 LGKR 192350Z VRB03KT 9999 SCT020 21/20 Q1010 NOSIG